Grand Strand Airport
KCRE : now visible

Airfield :











YOU CAN JOIN US ON...

 
LOGIN :

Register | Disclaimer

   EN    FR    IT 

 









Legend :    VFR   Marginal VFR   IFR   Intensive IFR   Very Intensive IFR
Visi :
Ceiling :
>= 8 km
>= 3000ft
5 to 8 km
1000 to 3000 ft
1500m to 5 km
500 to 1000 ft
800 to 1500m
200 to 500 ft
< 800m
< 200 ft
Symbols :   Thunderstorms  Fog  Heavy snow  Heavy precipitations  Wind > 20 kt






- Airport Elevation : 32 ft


KCRE - Grand Strand

CURRENT METAR :
  • 221353Z 04007KT 10SM CLR 24/21 A3019 RMK AO1 SLP224 T02390211

EXPIRED METARs :
  • 221253Z 03004KT 10SM BKN075 23/21 A3018 RMK AO1 SLP221 P0001 T02330206 $
  • 221225Z 00000KT FEW001 OVC065 22/21 A3018 RMK AO1 T02220206 $
  • 221153Z 05003KT 10SM OVC070 22/21 A3017 RMK AO1 SLP216 T02220206 10222 20211 53005

TAF KCRE
Valid from the 22 at 12:00 until the 23 at 12:00 UTC


221131Z 2212/2312 05006KT P6SM BKN060
FM221900 09008KT P6SM SCT040
FM230200 06003KT P6SM BKN250
KZJX FIR / North America



MET'MAP, your aeronautical weather chart ! - Copyright ORBIFLY December 2007 - Disclaimer

ORBIFLY MET'MAP TEAM :

Programming & Development : Alexandra Zaïnal
Concept & original design : Baudouin d'Aumeries
Assistance for programming : Marc-Olivier Méhu
Technical & hardware support : Manuel Goepfert

Contact : metmap@orbifly.com




SOURCES & CREDITS :

   NOAA       Earth
Advisory